LPMA/FNC METAR and TAF weather

Enter ICAO airport designator
Station Type Date Time Source
LPMA METAR 2018/12/11 22:30 UTC NOAA

LPMA 112230Z 33003KT 270V020 9999 FEW016 18/11 Q1028


Station Type Date Time Source
LPMA Decoded METAR 2018/12/11 22:30 UTC NOAA

Aeroporto Da Madeira, Portugal (LPMA) 32-41-52N 016-46-28W
Dec 11, 2018 - 05:30 PM EST / 2018.12.11 2230 UTC
Wind: from the NNW (330 degrees) at 3 MPH (3 KT) (direction variable):0
Visibility: greater than 7 mile(s):0
Sky conditions: mostly clear
Temperature: 64 F (18 C)
Dew Point: 51 F (11 C)
Relative Humidity: 63%
Pressure (altimeter): 30.36 in. Hg (1028 hPa)
ob: LPMA 112230Z 33003KT 270V020 9999 FEW016 18/11 Q1028
cycle: 22

Station Type Date Time Source
LPMA TAF 2018/12/11 18:18 UTC NOAA

TAF LPMA 111700Z 1118/1218 VRB05KT 9999 SCT015


Example: see airport list